createdAt,value
2022-08-26T00:00:15.756Z,22.33
2022-08-26T00:02:43.863Z,23.70
2022-08-26T00:05:13.591Z,23.85
2022-08-26T00:07:42.294Z,23.02
2022-08-26T00:10:13.529Z,27.67
2022-08-26T00:12:42.744Z,29.00
2022-08-26T00:15:14.811Z,29.17
2022-08-26T00:17:43.449Z,26.30
2022-08-26T00:20:15.936Z,28.27
2022-08-26T00:22:44.495Z,31.08
2022-08-26T00:25:13.299Z,31.80
2022-08-26T00:27:43.985Z,32.23
2022-08-26T00:30:16.975Z,32.90
2022-08-26T00:32:51.431Z,40.73
2022-08-26T00:35:21.942Z,36.47
2022-08-26T00:37:51.957Z,36.40
2022-08-26T00:40:24.427Z,38.07
2022-08-26T00:42:52.797Z,38.07
2022-08-26T00:45:21.079Z,42.30
2022-08-26T00:47:53.715Z,39.10
2022-08-26T00:50:27.807Z,40.47
2022-08-26T00:52:59.252Z,42.83
2022-08-26T00:55:38.197Z,41.80
2022-08-26T00:58:08.726Z,44.95
2022-08-26T01:00:37.029Z,41.40
2022-08-26T01:03:05.931Z,41.93
2022-08-26T01:05:42.829Z,44.07
2022-08-26T01:08:11.280Z,43.27
2022-08-26T01:10:40.182Z,43.40
2022-08-26T01:13:11.158Z,44.63
2022-08-26T01:15:44.407Z,42.63
2022-08-26T01:18:14.760Z,43.80
2022-08-26T01:20:57.665Z,46.80
2022-08-26T01:23:29.540Z,44.87
2022-08-26T01:26:05.294Z,43.73
2022-08-26T01:28:37.073Z,43.57
2022-08-26T01:31:10.592Z,48.30
2022-08-26T01:33:51.931Z,44.97
2022-08-26T01:36:20.319Z,50.27
2022-08-26T01:38:50.353Z,45.70
2022-08-26T01:41:19.979Z,48.00
2022-08-26T01:43:58.060Z,48.47
2022-08-26T01:46:29.613Z,48.13
2022-08-26T01:49:01.363Z,48.97
2022-08-26T01:51:30.415Z,46.60
2022-08-26T01:54:00.283Z,49.17
2022-08-26T01:56:33.184Z,49.93
2022-08-26T01:59:09.583Z,49.97
2022-08-26T02:01:39.059Z,51.40
2022-08-26T02:04:24.910Z,53.37
2022-08-26T02:06:54.819Z,45.23
2022-08-26T02:09:25.830Z,44.37
2022-08-26T02:11:55.671Z,46.73
2022-08-26T02:14:29.302Z,44.20
2022-08-26T02:16:57.659Z,51.73
2022-08-26T02:19:32.672Z,45.77
2022-08-26T02:22:05.639Z,44.33
2022-08-26T02:24:49.686Z,47.20
2022-08-26T02:27:20.415Z,45.60
2022-08-26T02:29:54.278Z,47.05
2022-08-26T02:32:22.406Z,49.10
2022-08-26T02:34:51.634Z,49.17
2022-08-26T02:37:20.187Z,44.17
2022-08-26T02:39:52.629Z,44.67
2022-08-26T02:42:20.772Z,40.70
2022-08-26T02:44:49.613Z,44.80
2022-08-26T02:47:18.157Z,47.70
2022-08-26T02:49:49.287Z,43.05
2022-08-26T02:52:17.732Z,51.77
2022-08-26T02:54:46.360Z,51.67
2022-08-26T02:57:20.583Z,48.90
2022-08-26T02:59:50.426Z,50.85
2022-08-26T03:02:18.610Z,48.90
2022-08-26T03:04:57.983Z,48.13
2022-08-26T03:07:33.176Z,49.33
2022-08-26T03:10:08.264Z,52.57
2022-08-26T03:12:38.121Z,50.57
2022-08-26T03:15:17.573Z,51.77
2022-08-26T03:17:48.334Z,47.17
2022-08-26T03:20:17.518Z,48.50
2022-08-26T03:22:46.865Z,49.47
2022-08-26T03:25:17.545Z,51.40
2022-08-26T03:27:47.480Z,51.97
2022-08-26T03:30:34.522Z,48.97
2022-08-26T03:33:03.192Z,52.03
2022-08-26T03:35:33.884Z,49.83
2022-08-26T03:38:04.776Z,45.43
2022-08-26T03:40:33.726Z,45.40
2022-08-26T03:43:04.739Z,46.50
2022-08-26T03:45:33.288Z,51.77
2022-08-26T03:48:01.657Z,46.27
2022-08-26T03:50:31.046Z,46.33
2022-08-26T03:53:03.078Z,43.40
2022-08-26T03:55:33.404Z,45.87
2022-08-26T03:58:03.330Z,51.27
2022-08-26T04:00:31.832Z,48.88
2022-08-26T04:03:02.599Z,40.87
2022-08-26T04:05:31.106Z,44.77
2022-08-26T04:07:59.221Z,42.97
2022-08-26T04:10:29.208Z,41.27
2022-08-26T04:12:58.930Z,38.97
2022-08-26T04:15:29.930Z,40.43
2022-08-26T04:17:58.290Z,37.77
2022-08-26T04:20:26.862Z,41.50
2022-08-26T04:22:55.021Z,38.10
2022-08-26T04:25:24.361Z,42.87
2022-08-26T04:27:52.591Z,38.20
2022-08-26T04:30:21.262Z,39.07
2022-08-26T04:32:51.020Z,39.17
2022-08-26T04:35:22.788Z,36.73
2022-08-26T04:37:55.405Z,43.53
2022-08-26T04:40:23.860Z,38.87
2022-08-26T04:42:52.034Z,35.03
2022-08-26T04:45:22.577Z,36.15
2022-08-26T04:47:56.320Z,35.93
2022-08-26T04:50:25.745Z,36.88
2022-08-26T04:52:55.303Z,36.73
2022-08-26T04:55:37.314Z,37.47
2022-08-26T04:58:10.375Z,33.87
2022-08-26T05:00:39.593Z,33.87
2022-08-26T05:03:10.335Z,33.20
2022-08-26T05:05:41.207Z,32.27
2022-08-26T05:08:11.369Z,32.07
2022-08-26T05:10:44.253Z,34.43
2022-08-26T05:13:15.497Z,37.27
2022-08-26T05:15:45.304Z,32.47
2022-08-26T05:18:16.551Z,35.73
2022-08-26T05:20:48.023Z,39.87
2022-08-26T05:23:17.575Z,29.60
2022-08-26T05:25:49.126Z,36.93
2022-08-26T05:28:19.466Z,35.10
2022-08-26T05:30:47.944Z,34.23
2022-08-26T05:33:20.052Z,34.40
2022-08-26T05:35:49.176Z,34.72
2022-08-26T05:38:20.265Z,31.50
2022-08-26T05:40:52.822Z,36.40
2022-08-26T05:43:22.179Z,32.80
2022-08-26T05:45:51.872Z,34.80
2022-08-26T05:48:24.544Z,36.20
2022-08-26T05:50:54.856Z,37.95
2022-08-26T05:53:26.125Z,30.48
2022-08-26T05:55:56.072Z,37.65
2022-08-26T05:58:24.913Z,38.80
2022-08-26T06:01:01.786Z,35.03
2022-08-26T06:03:34.359Z,35.72
2022-08-26T06:06:06.230Z,35.42
2022-08-26T06:08:36.107Z,33.83
2022-08-26T06:11:08.773Z,31.95
2022-08-26T06:13:47.069Z,33.35
2022-08-26T06:16:19.402Z,33.17
2022-08-26T06:18:50.604Z,33.67
2022-08-26T06:21:21.315Z,32.05
2022-08-26T06:24:10.646Z,37.30
2022-08-26T06:26:39.855Z,35.33
2022-08-26T06:29:11.499Z,36.25
2022-08-26T06:31:53.100Z,30.98
2022-08-26T06:34:23.031Z,31.55
2022-08-26T06:36:54.856Z,26.88
2022-08-26T06:39:23.027Z,30.95
2022-08-26T06:41:51.424Z,27.20
2022-08-26T06:44:20.244Z,30.08
2022-08-26T06:46:50.691Z,29.43
2022-08-26T06:49:27.147Z,28.00
2022-08-26T06:51:59.160Z,27.35
2022-08-26T06:54:28.236Z,28.52
2022-08-26T06:56:57.468Z,24.25
2022-08-26T06:59:26.841Z,25.10
2022-08-26T07:01:57.407Z,25.40
2022-08-26T07:04:27.919Z,24.92
2022-08-26T07:06:58.006Z,29.40
2022-08-26T07:09:29.174Z,26.95
2022-08-26T07:11:58.275Z,25.05
2022-08-26T07:14:27.167Z,26.38
2022-08-26T07:16:56.145Z,22.63
2022-08-26T07:19:30.401Z,23.50
2022-08-26T07:22:03.374Z,24.75
2022-08-26T07:24:32.784Z,23.42
2022-08-26T07:27:02.769Z,22.55
2022-08-26T07:29:31.702Z,19.40
2022-08-26T07:32:00.153Z,24.85
2022-08-26T07:34:28.350Z,22.75
2022-08-26T07:36:57.571Z,29.60
2022-08-26T07:39:28.769Z,24.85
2022-08-26T07:42:01.335Z,20.58
2022-08-26T07:44:29.828Z,27.17
2022-08-26T07:46:58.742Z,22.98
2022-08-26T07:49:28.093Z,23.55
2022-08-26T07:51:57.138Z,22.13
2022-08-26T07:54:27.321Z,24.70
2022-08-26T07:56:56.167Z,20.67
2022-08-26T07:59:24.810Z,16.75
2022-08-26T08:01:52.947Z,18.92
2022-08-26T08:04:26.014Z,20.70
2022-08-26T08:06:55.565Z,21.05
2022-08-26T08:09:25.391Z,17.10
2022-08-26T08:11:54.861Z,20.80
2022-08-26T08:14:23.106Z,21.67
2022-08-26T08:16:54.662Z,18.30
2022-08-26T08:19:23.945Z,17.52
2022-08-26T08:22:13.328Z,18.30
2022-08-26T08:24:50.023Z,17.10
2022-08-26T08:27:24.105Z,19.85
2022-08-26T08:29:54.322Z,17.77
2022-08-26T08:32:24.230Z,18.38
2022-08-26T08:34:52.880Z,17.23
2022-08-26T08:37:21.281Z,15.10
2022-08-26T08:39:50.551Z,18.83
2022-08-26T08:42:46.896Z,15.65
2022-08-26T08:45:22.216Z,17.98
2022-08-26T08:47:54.812Z,15.55
2022-08-26T08:50:31.102Z,16.83
2022-08-26T08:53:16.496Z,21.33
2022-08-26T08:56:00.033Z,19.60
2022-08-26T08:58:44.874Z,18.63
2022-08-26T09:01:26.169Z,17.63
2022-08-26T09:04:10.616Z,17.42
2022-08-26T09:06:41.054Z,13.38
2022-08-26T09:09:22.936Z,13.63
2022-08-26T09:11:51.734Z,14.38
2022-08-26T09:14:21.470Z,14.25
2022-08-26T09:16:57.890Z,17.33
2022-08-26T09:19:35.796Z,13.43
2022-08-26T09:22:09.641Z,12.25
2022-08-26T09:24:48.421Z,12.80
2022-08-26T09:27:41.965Z,11.27
2022-08-26T09:30:26.680Z,8.93
2022-08-26T09:33:10.428Z,9.73
2022-08-26T09:35:43.164Z,9.50
2022-08-26T09:38:26.774Z,8.80
2022-08-26T09:40:59.702Z,8.50
2022-08-26T09:43:29.064Z,12.30
2022-08-26T09:46:16.292Z,12.50
2022-08-26T09:48:44.609Z,10.23
2022-08-26T09:51:32.113Z,8.50
2022-08-26T09:54:05.750Z,9.45
2022-08-26T09:56:39.194Z,10.75
2022-08-26T09:59:11.996Z,8.75
2022-08-26T10:01:43.893Z,8.35
2022-08-26T10:04:21.223Z,9.43
2022-08-26T10:07:00.071Z,10.52
2022-08-26T10:09:30.041Z,6.05
2022-08-26T10:12:05.335Z,10.40
2022-08-26T10:14:39.760Z,8.38
2022-08-26T10:17:17.263Z,8.13
2022-08-26T10:19:56.765Z,9.63
2022-08-26T10:22:33.426Z,8.38
2022-08-26T10:25:05.526Z,9.38
2022-08-26T10:27:51.034Z,9.98
2022-08-26T10:30:24.387Z,9.15
2022-08-26T10:32:58.800Z,7.82
2022-08-26T10:35:27.410Z,10.70
2022-08-26T10:38:03.881Z,9.18
2022-08-26T10:40:50.951Z,8.77
2022-08-26T10:43:23.531Z,8.27
2022-08-26T10:45:58.461Z,8.75
2022-08-26T10:48:37.228Z,11.77
2022-08-26T10:51:06.412Z,11.52
2022-08-26T10:53:51.532Z,9.52
2022-08-26T10:56:39.190Z,15.43
2022-08-26T10:59:14.659Z,10.25
2022-08-26T11:01:52.535Z,10.25
2022-08-26T11:04:48.156Z,9.82
2022-08-26T11:07:41.257Z,7.90
2022-08-26T11:10:47.210Z,8.23
2022-08-26T11:13:17.210Z,8.27
2022-08-26T11:16:12.417Z,9.55
2022-08-26T11:18:48.603Z,11.35
2022-08-26T11:22:00.854Z,8.90
2022-08-26T11:25:11.612Z,6.13
2022-08-26T11:28:05.286Z,8.95
2022-08-26T11:30:44.553Z,7.35
2022-08-26T11:33:57.857Z,8.48
2022-08-26T11:36:59.023Z,11.50
2022-08-26T11:39:54.468Z,9.88
2022-08-26T11:42:34.247Z,7.38
2022-08-26T11:45:19.320Z,10.65
2022-08-26T11:47:49.504Z,10.45
2022-08-26T11:50:23.340Z,12.45
2022-08-26T11:53:01.955Z,10.07
2022-08-26T11:55:31.843Z,9.63
2022-08-26T11:58:02.601Z,9.02
2022-08-26T12:00:50.264Z,5.80
2022-08-26T12:03:23.068Z,8.98
2022-08-26T12:05:53.543Z,9.70
2022-08-26T12:08:29.258Z,9.07
2022-08-26T12:11:06.905Z,7.53
2022-08-26T12:13:35.779Z,7.03
2022-08-26T12:16:07.414Z,9.10
2022-08-26T12:18:39.616Z,6.75
2022-08-26T12:21:22.176Z,6.53
2022-08-26T12:23:55.891Z,9.15
2022-08-26T12:26:28.533Z,6.43
2022-08-26T12:29:00.032Z,9.10
2022-08-26T12:31:32.892Z,6.70
2022-08-26T12:34:04.852Z,7.22
2022-08-26T12:36:37.355Z,8.75
2022-08-26T12:39:12.835Z,6.95
2022-08-26T12:41:46.912Z,9.23
2022-08-26T12:44:36.161Z,6.90
2022-08-26T12:47:20.450Z,6.78
2022-08-26T12:50:04.907Z,6.60
2022-08-26T12:52:36.507Z,10.30
2022-08-26T12:55:19.153Z,6.80
2022-08-26T12:57:48.006Z,7.35
2022-08-26T13:00:35.268Z,8.88
2022-08-26T13:03:04.616Z,5.57
2022-08-26T13:05:35.723Z,5.28
2022-08-26T13:08:17.636Z,8.73
2022-08-26T13:10:48.755Z,7.30
2022-08-26T13:13:16.875Z,4.38
2022-08-26T13:15:45.272Z,6.35
2022-08-26T13:18:13.413Z,5.65
2022-08-26T13:20:44.818Z,3.47
2022-08-26T13:23:14.010Z,6.28
2022-08-26T13:25:42.454Z,3.40
2022-08-26T13:28:12.326Z,5.78
2022-08-26T13:30:41.583Z,4.38
2022-08-26T13:33:12.272Z,5.40
2022-08-26T13:35:42.776Z,6.35
2022-08-26T13:38:33.382Z,5.65
2022-08-26T13:41:04.024Z,5.68
2022-08-26T13:43:34.069Z,6.93
2022-08-26T13:46:02.614Z,7.53
2022-08-26T13:48:31.425Z,5.75
2022-08-26T13:51:00.100Z,5.47
2022-08-26T13:53:29.374Z,5.43
2022-08-26T13:55:58.160Z,6.47
2022-08-26T13:58:26.496Z,7.15
2022-08-26T14:00:57.117Z,4.55
2022-08-26T14:03:25.711Z,9.02
2022-08-26T14:05:54.390Z,5.22
2022-08-26T14:08:23.395Z,6.22
2022-08-26T14:10:51.501Z,5.25
2022-08-26T14:13:19.840Z,5.20
2022-08-26T14:15:48.307Z,8.32
2022-08-26T14:18:21.416Z,6.47
2022-08-26T14:20:59.526Z,5.93
2022-08-26T14:23:31.265Z,4.82
2022-08-26T14:25:59.981Z,7.43
2022-08-26T14:28:28.152Z,6.57
2022-08-26T14:30:59.320Z,7.13
2022-08-26T14:33:33.230Z,5.05
2022-08-26T14:36:15.960Z,8.93
2022-08-26T14:38:44.814Z,11.50
2022-08-26T14:41:14.781Z,9.52
2022-08-26T14:43:49.733Z,6.00
2022-08-26T14:46:21.546Z,8.27
2022-08-26T14:48:51.283Z,8.73
2022-08-26T14:51:23.799Z,6.30
2022-08-26T14:54:10.474Z,8.13
2022-08-26T14:56:45.291Z,8.43
2022-08-26T14:59:14.312Z,7.47
2022-08-26T15:01:42.713Z,8.73
2022-08-26T15:04:12.730Z,8.98
2022-08-26T15:06:41.711Z,5.90
2022-08-26T15:09:09.868Z,5.13
2022-08-26T15:11:38.104Z,10.63
2022-08-26T15:14:06.826Z,6.90
2022-08-26T15:16:35.625Z,9.40
2022-08-26T15:19:05.259Z,10.55
2022-08-26T15:21:36.627Z,7.57
2022-08-26T15:24:06.088Z,5.50
2022-08-26T15:26:35.193Z,10.38
2022-08-26T15:29:05.164Z,10.55
2022-08-26T15:31:35.541Z,6.68
2022-08-26T15:34:08.533Z,8.68
2022-08-26T15:36:40.742Z,7.65
2022-08-26T15:39:10.371Z,8.32
2022-08-26T15:41:38.832Z,8.20
2022-08-26T15:44:08.986Z,7.53
2022-08-26T15:46:38.519Z,8.00
2022-08-26T15:49:07.424Z,6.03
2022-08-26T15:51:45.503Z,7.13
2022-08-26T15:54:16.532Z,6.97
2022-08-26T15:56:45.379Z,6.05
2022-08-26T15:59:16.220Z,4.93
2022-08-26T16:01:44.852Z,5.00
2022-08-26T16:04:13.960Z,5.18
2022-08-26T16:06:44.063Z,6.77
2022-08-26T16:09:12.558Z,5.30
2022-08-26T16:11:40.897Z,5.70
2022-08-26T16:14:09.796Z,6.53
2022-08-26T16:16:40.004Z,7.17
2022-08-26T16:19:08.574Z,6.80
2022-08-26T16:21:37.065Z,5.53
2022-08-26T16:24:07.382Z,3.90
2022-08-26T16:26:38.435Z,7.23
2022-08-26T16:29:10.119Z,4.93
2022-08-26T16:31:38.983Z,7.53
2022-08-26T16:34:08.038Z,4.80
2022-08-26T16:36:36.625Z,4.80
2022-08-26T16:39:08.751Z,4.10
2022-08-26T16:41:37.426Z,7.80
2022-08-26T16:44:07.053Z,6.37
2022-08-26T16:46:36.157Z,5.57
2022-08-26T16:49:04.958Z,4.33
2022-08-26T16:51:38.051Z,5.30
2022-08-26T16:54:09.592Z,6.47
2022-08-26T16:56:38.373Z,7.03
2022-08-26T16:59:10.538Z,4.50
2022-08-26T17:01:38.979Z,4.20
2022-08-26T17:04:07.190Z,7.03
2022-08-26T17:06:35.913Z,7.17
2022-08-26T17:09:08.343Z,5.43
2022-08-26T17:11:36.889Z,5.93
2022-08-26T17:14:05.829Z,5.63
2022-08-26T17:16:34.232Z,5.23
2022-08-26T17:19:02.611Z,3.83
2022-08-26T17:21:30.804Z,5.13
2022-08-26T17:23:59.307Z,7.40
2022-08-26T17:26:29.529Z,3.80
2022-08-26T17:28:57.716Z,5.77
2022-08-26T17:31:26.833Z,5.47
2022-08-26T17:33:55.515Z,2.90
2022-08-26T17:36:28.031Z,3.60
2022-08-26T17:38:57.842Z,5.90
2022-08-26T17:41:28.456Z,4.17
2022-08-26T17:43:57.134Z,4.40
2022-08-26T17:46:27.926Z,5.77
2022-08-26T17:48:56.301Z,3.07
2022-08-26T17:51:25.019Z,5.77
2022-08-26T17:53:53.973Z,2.97
2022-08-26T17:56:25.912Z,5.20
2022-08-26T17:59:04.011Z,4.77
2022-08-26T18:01:32.776Z,4.30
2022-08-26T18:04:01.350Z,4.30
2022-08-26T18:06:31.070Z,6.73
2022-08-26T18:09:00.340Z,3.50
2022-08-26T18:11:28.965Z,5.17
2022-08-26T18:13:59.011Z,4.43
2022-08-26T18:16:27.665Z,5.20
2022-08-26T18:18:56.622Z,3.83
2022-08-26T18:21:27.509Z,4.80
2022-08-26T18:23:56.275Z,3.87
2022-08-26T18:26:28.110Z,4.33
2022-08-26T18:28:58.573Z,2.57
2022-08-26T18:31:27.702Z,5.60
2022-08-26T18:33:56.329Z,3.47
2022-08-26T18:36:27.689Z,5.90
2022-08-26T18:38:56.926Z,4.13
2022-08-26T18:41:27.813Z,4.50
2022-08-26T18:43:58.371Z,4.80
2022-08-26T18:46:29.027Z,7.07
2022-08-26T18:48:58.460Z,5.50
2022-08-26T18:51:30.646Z,4.60
2022-08-26T18:53:59.790Z,3.83
2022-08-26T18:56:28.475Z,4.17
2022-08-26T18:58:58.910Z,4.33
2022-08-26T19:01:28.656Z,6.07
2022-08-26T19:03:58.007Z,3.70
2022-08-26T19:06:28.174Z,4.05
2022-08-26T19:08:58.148Z,6.72
2022-08-26T19:11:31.585Z,3.13
2022-08-26T19:14:03.213Z,4.83
2022-08-26T19:16:32.045Z,5.37
2022-08-26T19:19:01.926Z,5.80
2022-08-26T19:21:31.145Z,5.50
2022-08-26T19:24:02.535Z,3.60
2022-08-26T19:26:32.605Z,4.53
2022-08-26T19:29:02.583Z,1.97
2022-08-26T19:31:31.198Z,2.97
2022-08-26T19:33:59.542Z,4.03
2022-08-26T19:36:29.210Z,3.33
2022-08-26T19:38:58.100Z,3.53
2022-08-26T19:41:37.075Z,5.23
2022-08-26T19:44:12.899Z,4.00
2022-08-26T19:46:41.622Z,3.33
2022-08-26T19:49:09.821Z,3.20
2022-08-26T19:51:38.026Z,3.10
2022-08-26T19:54:06.852Z,2.90
2022-08-26T19:56:35.442Z,3.67
2022-08-26T19:59:03.734Z,5.87
2022-08-26T20:01:33.418Z,4.87
2022-08-26T20:04:01.864Z,4.17
2022-08-26T20:06:30.022Z,2.73
2022-08-26T20:08:58.696Z,5.40
2022-08-26T20:11:27.102Z,2.50
2022-08-26T20:13:55.415Z,6.20
2022-08-26T20:16:23.734Z,5.00
2022-08-26T20:19:10.699Z,5.37
2022-08-26T20:21:41.288Z,4.63
2022-08-26T20:24:14.238Z,4.30
2022-08-26T20:26:45.023Z,3.50
2022-08-26T20:29:16.918Z,5.60
2022-08-26T20:31:45.768Z,5.30
2022-08-26T20:34:18.430Z,3.57
2022-08-26T20:36:48.072Z,4.63
2022-08-26T20:39:18.259Z,3.47
2022-08-26T20:41:46.354Z,4.07
2022-08-26T20:44:16.594Z,2.97
2022-08-26T20:46:45.381Z,6.20
2022-08-26T20:49:18.035Z,3.53
2022-08-26T20:51:46.748Z,4.33
2022-08-26T20:54:15.349Z,4.67
2022-08-26T20:56:43.514Z,5.27
2022-08-26T20:59:11.669Z,3.87
2022-08-26T21:01:42.437Z,4.63
2022-08-26T21:04:17.045Z,6.07
2022-08-26T21:06:52.686Z,5.07
2022-08-26T21:09:22.707Z,4.00
2022-08-26T21:11:51.585Z,5.13
2022-08-26T21:14:22.832Z,5.20
2022-08-26T21:16:54.374Z,7.60
2022-08-26T21:19:24.505Z,3.00
2022-08-26T21:21:52.615Z,4.03
2022-08-26T21:24:20.999Z,4.83
2022-08-26T21:26:49.581Z,4.40
2022-08-26T21:29:18.782Z,5.93
2022-08-26T21:31:47.133Z,3.10
2022-08-26T21:34:16.046Z,2.90
2022-08-26T21:36:45.961Z,3.73
2022-08-26T21:39:14.854Z,5.33
2022-08-26T21:41:44.640Z,4.17
2022-08-26T21:44:14.921Z,6.20
2022-08-26T21:46:45.426Z,5.87
2022-08-26T21:49:17.385Z,6.33
2022-08-26T21:51:49.158Z,6.73
2022-08-26T21:54:18.036Z,3.57
2022-08-26T21:56:47.969Z,4.77
2022-08-26T21:59:21.382Z,2.77
2022-08-26T22:01:51.202Z,4.67
2022-08-26T22:04:19.636Z,4.37
2022-08-26T22:06:51.993Z,5.00
2022-08-26T22:09:23.387Z,4.90
2022-08-26T22:11:53.195Z,4.47
2022-08-26T22:14:25.400Z,3.53
2022-08-26T22:16:56.740Z,3.77
2022-08-26T22:19:25.674Z,5.73
2022-08-26T22:21:56.480Z,5.77
2022-08-26T22:24:27.621Z,3.87
2022-08-26T22:26:56.468Z,3.83
2022-08-26T22:29:25.599Z,4.40
2022-08-26T22:31:54.189Z,3.87
2022-08-26T22:34:23.182Z,4.07
2022-08-26T22:36:51.935Z,3.93
2022-08-26T22:39:24.609Z,3.43
2022-08-26T22:41:53.619Z,2.90
2022-08-26T22:44:24.718Z,3.33
2022-08-26T22:46:55.078Z,4.83
2022-08-26T22:49:23.803Z,5.17
2022-08-26T22:51:52.009Z,4.97
2022-08-26T22:54:21.746Z,4.97
2022-08-26T22:56:49.880Z,5.50
2022-08-26T22:59:18.043Z,5.07
2022-08-26T23:01:47.253Z,4.37
2022-08-26T23:04:16.137Z,6.63
2022-08-26T23:06:47.745Z,4.63
2022-08-26T23:09:18.243Z,4.67
2022-08-26T23:11:49.620Z,6.40
2022-08-26T23:14:19.511Z,3.87
2022-08-26T23:16:48.327Z,4.13
2022-08-26T23:19:19.486Z,6.27
2022-08-26T23:21:48.434Z,7.17
2022-08-26T23:24:17.427Z,3.73
2022-08-26T23:26:47.732Z,6.90
2022-08-26T23:29:16.426Z,5.57
2022-08-26T23:31:44.872Z,5.70
2022-08-26T23:34:31.327Z,4.33
2022-08-26T23:37:00.136Z,5.57
2022-08-26T23:39:29.633Z,3.87
2022-08-26T23:42:01.570Z,3.30
2022-08-26T23:44:30.536Z,6.47
2022-08-26T23:46:59.286Z,4.53
2022-08-26T23:49:27.856Z,6.43
2022-08-26T23:52:13.298Z,5.90
2022-08-26T23:54:41.853Z,5.00
2022-08-26T23:57:11.890Z,3.60
2022-08-26T23:59:40.679Z,5.33
